Time;durP1;ratioP1;P1;durP2;ratioP2;P2;SDS_P1;SDS_P2;PMS_P1;PMS_P2;Temp;Humidity;BMP_temperature;BMP_pressure;BME280_temperature;BME280_humidity;BME280_pressure;Samples;Min_cycle;Max_cycle;Signal;HPM_P1;HPM_P2
2023/01/14 00:00:49;;;;;;;;;;;;;;;;;;7361879;19;20011;-78
2023/01/14 00:03:14;;;;;;;;;;;;;;;;;;7360783;19;19915;-78
2023/01/14 00:05:41;;;;;;;;;;;;;;;;;;7360814;19;19923;-77
2023/01/14 00:08:06;;;;;;;;;;;;;;;;;;7350899;19;20505;-78
2023/01/14 00:10:31;;;;;;;;;;;;;;;;;;7362934;19;20240;-78
2023/01/14 00:12:57;;;;;;;;;;;;;;;;;;7357592;19;19915;-78
2023/01/14 00:15:22;;;;;;;;;;;;;;;;;;7364498;19;19926;-79
2023/01/14 00:17:48;;;;;;;;;;;;;;;;;;7363130;19;19998;-78
2023/01/14 00:20:13;;;;;;;;;;;;;;;;;;7371315;19;20329;-78
2023/01/14 00:22:38;;;;;;;;;;;;;;;;;;7365210;19;19931;-78
2023/01/14 00:25:03;;;;;;;;;;;;;;;;;;7355831;19;20428;-78
2023/01/14 00:27:28;;;;;;;;;;;;;;;;;;7356254;19;19919;-78
2023/01/14 00:29:53;;;;;;;;;;;;;;;;;;7361678;19;19935;-78
2023/01/14 00:32:18;;;;;;;;;;;;;;;;;;7350058;19;19925;-78
2023/01/14 00:34:43;;;;;;;;;;;;;;;;;;7367642;19;19959;-78
2023/01/14 00:37:09;;;;;;;;;;;;;;;;;;7366360;19;19922;-78
2023/01/14 00:39:34;;;;;;;;;;;;;;;;;;7369709;19;20463;-79
2023/01/14 00:41:59;;;;;;;;;;;;;;;;;;7368101;19;19994;-78
2023/01/14 00:44:24;;;;;;;;;;;;;;;;;;7363103;19;19986;-79
2023/01/14 00:46:50;;;;;;;;;;;;;;;;;;7365466;19;20304;-78
2023/01/14 00:49:16;;;;;;;;;;;;;;;;;;7370068;19;19926;-78
2023/01/14 00:51:41;;;;;;;;;;;;;;;;;;7366488;19;20023;-78
2023/01/14 00:54:06;;;;;;;;;;;;;;;;;;7368105;19;19983;-79
2023/01/14 00:56:31;;;;;;;;;;;;;;;;;;7366906;19;20137;-78
2023/01/14 00:58:56;;;;;;;;;;;;;;;;;;7365019;19;19907;-78
2023/01/14 01:01:21;;;;;;;;;;;;;;;;;;7373308;19;19919;-78
2023/01/14 01:03:46;;;;;;;;;;;;;;;;;;7371447;19;19915;-79
2023/01/14 01:06:12;;;;;;;;;;;;;;;;;;7365595;19;19935;-79
2023/01/14 01:08:37;;;;;;;;;;;;;;;;;;7367518;19;19979;-79
2023/01/14 01:11:02;;;;;;;;;;;;;;;;;;7365892;19;19930;-80
2023/01/14 01:13:27;;;;;;;;;;;;;;;;;;7367943;19;19922;-79
2023/01/14 01:15:52;;;;;;;;;;;;;;;;;;7368887;19;19915;-78
2023/01/14 01:18:17;;;;;;;;;;;;;;;;;;7369951;19;19986;-78
2023/01/14 01:20:42;;;;;;;;;;;;;;;;;;7365711;19;19927;-78
2023/01/14 01:23:08;;;;;;;;;;;;;;;;;;7368641;19;19941;-78
2023/01/14 01:25:33;;;;;;;;;;;;;;;;;;7365893;19;20285;-78
2023/01/14 01:27:58;;;;;;;;;;;;;;;;;;7341603;19;20420;-78
2023/01/14 01:30:23;;;;;;;;;;;;;;;;;;7369868;19;19919;-78
2023/01/14 01:32:49;;;;;;;;;;;;;;;;;;7365124;19;19968;-78
2023/01/14 01:35:14;;;;;;;;;;;;;;;;;;7368036;19;20737;-78
2023/01/14 01:37:39;;;;;;;;;;;;;;;;;;7362777;19;19954;-78
2023/01/14 01:40:04;;;;;;;;;;;;;;;;;;7365785;19;20367;-79
2023/01/14 01:42:33;;;;;;;;;;;;;;;;;;7358258;19;19927;-78
2023/01/14 01:44:58;;;;;;;;;;;;;;;;;;7360359;19;19919;-78
2023/01/14 01:47:23;;;;;;;;;;;;;;;;;;7365129;19;19984;-78
2023/01/14 01:49:48;;;;;;;;;;;;;;;;;;7363013;19;20038;-78
2023/01/14 01:52:14;;;;;;;;;;;;;;;;;;7365115;19;20007;-78
2023/01/14 01:54:39;;;;;;;;;;;;;;;;;;7367332;19;20325;-78
2023/01/14 01:57:04;;;;;;;;;;;;;;;;;;7363361;19;19910;-78
2023/01/14 01:59:29;;;;;;;;;;;;;;;;;;7367399;19;19942;-80
2023/01/14 02:01:54;;;;;;;;;;;;;;;;;;7362559;19;19934;-80
2023/01/14 02:04:19;;;;;;;;;;;;;;;;;;7363333;19;20449;-79
2023/01/14 02:06:44;;;;;;;;;;;;;;;;;;7364416;19;19929;-80
2023/01/14 02:09:09;;;;;;;;;;;;;;;;;;7364958;19;19918;-79
2023/01/14 02:11:35;;;;;;;;;;;;;;;;;;7362245;19;20221;-79
2023/01/14 02:14:00;;;;;;;;;;;;;;;;;;7359538;19;19935;-79
2023/01/14 02:16:25;;;;;;;;;;;;;;;;;;7366277;19;20446;-79
2023/01/14 02:18:50;;;;;;;;;;;;;;;;;;7364021;19;19976;-79
2023/01/14 02:21:15;;;;;;;;;;;;;;;;;;7365433;19;19946;-79
2023/01/14 02:23:40;;;;;;;;;;;;;;;;;;7367716;19;19943;-79
2023/01/14 02:26:05;;;;;;;;;;;;;;;;;;7352287;19;20317;-77
2023/01/14 02:28:30;;;;;;;;;;;;;;;;;;7269207;19;20031;-78
2023/01/14 02:30:56;;;;;;;;;;;;;;;;;;7268804;19;20876;-78
2023/01/14 02:33:21;;;;;;;;;;;;;;;;;;7282129;19;20305;-78
2023/01/14 02:35:46;;;;;;;;;;;;;;;;;;7280410;19;20555;-78
2023/01/14 02:38:11;;;;;;;;;;;;;;;;;;7287877;19;20400;-78
2023/01/14 02:40:36;;;;;;;;;;;;;;;;;;7287797;19;20324;-77
2023/01/14 02:45:45;;;;;;;;;;;;;;;;;;7284579;19;20418;-79
2023/01/14 02:48:10;;;;;;;;;;;;;;;;;;7287987;19;20443;-79
2023/01/14 02:50:35;;;;;;;;;;;;;;;;;;7292780;19;20232;-77
2023/01/14 02:53:01;;;;;;;;;;;;;;;;;;7288819;19;20335;-77
2023/01/14 02:55:26;;;;;;;;;;;;;;;;;;7295618;19;20254;-78
2023/01/14 02:57:51;;;;;;;;;;;;;;;;;;7292507;19;19915;-78
2023/01/14 03:00:16;;;;;;;;;;;;;;;;;;7291554;19;19918;-77
2023/01/14 03:02:43;;;;;;;;;;;;;;;;;;7294180;19;20329;-78
2023/01/14 03:05:08;;;;;;;;;;;;;;;;;;7279783;19;20409;-78
2023/01/14 03:07:33;;;;;;;;;;;;;;;;;;7287896;19;19959;-78
2023/01/14 03:09:59;;;;;;;;;;;;;;;;;;7291187;19;19976;-77
2023/01/14 03:12:24;;;;;;;;;;;;;;;;;;7293861;19;19915;-78
2023/01/14 03:14:49;;;;;;;;;;;;;;;;;;7288423;19;19942;-78
2023/01/14 03:17:14;;;;;;;;;;;;;;;;;;7297045;19;19915;-78
2023/01/14 03:19:39;;;;;;;;;;;;;;;;;;7295085;19;20292;-77
2023/01/14 03:22:04;;;;;;;;;;;;;;;;;;7285078;19;21027;-78
2023/01/14 03:24:30;;;;;;;;;;;;;;;;;;7299539;19;20041;-78
2023/01/14 03:26:55;;;;;;;;;;;;;;;;;;7320566;19;20305;-78
2023/01/14 03:29:20;;;;;;;;;;;;;;;;;;7365595;19;19959;-78
2023/01/14 03:31:46;;;;;;;;;;;;;;;;;;7365997;19;19929;-77
2023/01/14 03:34:11;;;;;;;;;;;;;;;;;;7370190;19;19948;-78
2023/01/14 03:36:36;;;;;;;;;;;;;;;;;;7365886;19;20358;-80
2023/01/14 03:39:01;;;;;;;;;;;;;;;;;;7366803;19;19927;-79
2023/01/14 03:44:10;;;;;;;;;;;;;;;;;;7367093;19;19943;-80
2023/01/14 03:46:35;;;;;;;;;;;;;;;;;;7368809;19;19926;-79
2023/01/14 03:49:01;;;;;;;;;;;;;;;;;;7369722;19;20255;-79
2023/01/14 03:51:26;;;;;;;;;;;;;;;;;;7365023;19;20336;-78
2023/01/14 03:53:51;;;;;;;;;;;;;;;;;;7367245;19;19922;-79
2023/01/14 03:56:16;;;;;;;;;;;;;;;;;;7362241;19;19911;-79
2023/01/14 03:58:41;;;;;;;;;;;;;;;;;;7370487;19;19937;-79
2023/01/14 04:01:06;;;;;;;;;;;;;;;;;;7365806;19;19927;-80
2023/01/14 04:03:31;;;;;;;;;;;;;;;;;;7367328;19;20027;-79
2023/01/14 04:05:56;;;;;;;;;;;;;;;;;;7365905;19;20274;-79
2023/01/14 04:08:22;;;;;;;;;;;;;;;;;;7369149;19;20229;-78
2023/01/14 04:10:47;;;;;;;;;;;;;;;;;;7357023;19;20314;-78
2023/01/14 04:15:56;;;;;;;;;;;;;;;;;;7368552;19;19925;-79
2023/01/14 04:18:21;;;;;;;;;;;;;;;;;;7369992;19;19918;-79
2023/01/14 04:20:46;;;;;;;;;;;;;;;;;;7371522;19;19918;-79
2023/01/14 04:23:11;;;;;;;;;;;;;;;;;;7369544;19;20072;-80
2023/01/14 04:25:36;;;;;;;;;;;;;;;;;;7370724;19;20304;-79
2023/01/14 04:28:01;;;;;;;;;;;;;;;;;;7365064;19;19926;-79
2023/01/14 04:30:27;;;;;;;;;;;;;;;;;;7368625;19;19919;-80
2023/01/14 04:32:52;;;;;;;;;;;;;;;;;;7370311;19;20220;-79
2023/01/14 04:35:17;;;;;;;;;;;;;;;;;;7370354;19;19929;-78
2023/01/14 04:37:42;;;;;;;;;;;;;;;;;;7370295;19;19915;-79
2023/01/14 04:40:07;;;;;;;;;;;;;;;;;;7366625;19;20364;-79
2023/01/14 04:42:32;;;;;;;;;;;;;;;;;;7353058;19;20228;-79
2023/01/14 04:44:57;;;;;;;;;;;;;;;;;;7368277;19;20322;-79
2023/01/14 04:47:23;;;;;;;;;;;;;;;;;;7370214;19;20016;-79
2023/01/14 04:49:48;;;;;;;;;;;;;;;;;;7370987;19;19937;-79
2023/01/14 04:52:13;;;;;;;;;;;;;;;;;;7367580;19;19926;-79
2023/01/14 04:54:38;;;;;;;;;;;;;;;;;;7372322;19;20025;-77
2023/01/14 04:57:03;;;;;;;;;;;;;;;;;;7362220;19;20000;-78
2023/01/14 04:59:28;;;;;;;;;;;;;;;;;;7368097;19;20054;-78
2023/01/14 05:01:54;;;;;;;;;;;;;;;;;;7367593;19;20026;-78
2023/01/14 05:04:19;;;;;;;;;;;;;;;;;;7369049;19;19925;-78
2023/01/14 05:06:44;;;;;;;;;;;;;;;;;;7370426;19;19992;-78
2023/01/14 05:09:09;;;;;;;;;;;;;;;;;;7363072;19;19919;-78
2023/01/14 05:11:34;;;;;;;;;;;;;;;;;;7344495;19;19915;-77
2023/01/14 05:13:59;;;;;;;;;;;;;;;;;;7364014;19;20028;-78
2023/01/14 05:16:26;;;;;;;;;;;;;;;;;;7368343;19;20383;-78
2023/01/14 05:18:52;;;;;;;;;;;;;;;;;;7359868;19;19922;-78
2023/01/14 05:21:17;;;;;;;;;;;;;;;;;;7369591;19;19922;-78
2023/01/14 05:23:42;;;;;;;;;;;;;;;;;;7367171;19;19927;-77
2023/01/14 05:26:08;;;;;;;;;;;;;;;;;;7363203;19;19987;-78
2023/01/14 05:28:33;;;;;;;;;;;;;;;;;;7369157;19;20315;-80
2023/01/14 05:30:58;;;;;;;;;;;;;;;;;;7364926;19;20348;-79
2023/01/14 05:33:23;;;;;;;;;;;;;;;;;;7368582;19;19952;-79
2023/01/14 05:35:48;;;;;;;;;;;;;;;;;;7370449;19;20273;-79
2023/01/14 05:38:13;;;;;;;;;;;;;;;;;;7362607;19;19923;-79
2023/01/14 05:40:38;;;;;;;;;;;;;;;;;;7364098;19;19953;-80
2023/01/14 05:45:48;;;;;;;;;;;;;;;;;;7362992;19;20292;-79
2023/01/14 05:48:13;;;;;;;;;;;;;;;;;;7363698;19;19939;-79
2023/01/14 05:50:38;;;;;;;;;;;;;;;;;;7362650;19;19927;-79
2023/01/14 05:53:03;;;;;;;;;;;;;;;;;;7366584;19;19915;-79
2023/01/14 05:55:28;;;;;;;;;;;;;;;;;;7367338;19;20248;-79
2023/01/14 05:57:54;;;;;;;;;;;;;;;;;;7358280;19;19919;-79
2023/01/14 06:08:31;;;;;;;;;;;;;;;;;;7364876;19;20354;-80
2023/01/14 06:10:56;;;;;;;;;;;;;;;;;;7361611;19;20011;-79
2023/01/14 06:13:22;;;;;;;;;;;;;;;;;;7366658;19;19925;-80
2023/01/14 06:15:51;;;;;;;;;;;;;;;;;;7364152;19;19946;-80
2023/01/14 06:18:21;;;;;;;;;;;;;;;;;;7360520;19;19975;-79
2023/01/14 06:20:46;;;;;;;;;;;;;;;;;;7369572;19;19935;-80
2023/01/14 06:23:13;;;;;;;;;;;;;;;;;;7364572;19;19949;-80
2023/01/14 06:25:38;;;;;;;;;;;;;;;;;;7373630;19;19923;-80
2023/01/14 06:28:03;;;;;;;;;;;;;;;;;;7368460;19;19930;-79
2023/01/14 06:30:28;;;;;;;;;;;;;;;;;;7375444;19;20320;-79
2023/01/14 06:32:53;;;;;;;;;;;;;;;;;;7371216;19;19914;-80
2023/01/14 06:35:18;;;;;;;;;;;;;;;;;;7367943;19;19919;-80
2023/01/14 06:37:44;;;;;;;;;;;;;;;;;;7374369;19;20011;-79
2023/01/14 06:40:09;;;;;;;;;;;;;;;;;;7363556;19;19933;-80
2023/01/14 06:42:34;;;;;;;;;;;;;;;;;;7349086;19;19942;-79
2023/01/14 06:44:59;;;;;;;;;;;;;;;;;;7371305;19;20493;-79
2023/01/14 06:47:24;;;;;;;;;;;;;;;;;;7374015;19;19915;-80
2023/01/14 06:49:49;;;;;;;;;;;;;;;;;;7371125;19;20256;-79
2023/01/14 06:52:14;;;;;;;;;;;;;;;;;;7372363;19;20378;-80
2023/01/14 06:54:39;;;;;;;;;;;;;;;;;;7375502;19;19911;-80
2023/01/14 06:57:04;;;;;;;;;;;;;;;;;;7368602;19;19925;-80
2023/01/14 06:59:29;;;;;;;;;;;;;;;;;;7374623;19;19982;-80
2023/01/14 07:01:55;;;;;;;;;;;;;;;;;;7366624;19;19929;-79
2023/01/14 07:04:20;;;;;;;;;;;;;;;;;;7366074;19;19911;-80
2023/01/14 07:06:45;;;;;;;;;;;;;;;;;;7371417;19;20026;-79
2023/01/14 07:09:10;;;;;;;;;;;;;;;;;;7363353;19;20352;-79
2023/01/14 07:11:35;;;;;;;;;;;;;;;;;;7367120;19;20205;-80
2023/01/14 07:14:00;;;;;;;;;;;;;;;;;;7369779;19;20277;-79
2023/01/14 07:16:25;;;;;;;;;;;;;;;;;;7373790;19;20735;-79
2023/01/14 07:18:50;;;;;;;;;;;;;;;;;;7373790;19;20669;-78
2023/01/14 07:21:16;;;;;;;;;;;;;;;;;;7368505;19;20210;-78
2023/01/14 07:23:41;;;;;;;;;;;;;;;;;;7372451;19;19911;-79
2023/01/14 07:26:06;;;;;;;;;;;;;;;;;;7364306;19;20144;-78
2023/01/14 07:28:31;;;;;;;;;;;;;;;;;;7370902;19;19930;-79
2023/01/14 07:30:56;;;;;;;;;;;;;;;;;;7368769;19;19914;-79
2023/01/14 07:33:21;;;;;;;;;;;;;;;;;;7368108;19;19979;-79
2023/01/14 07:35:51;;;;;;;;;;;;;;;;;;7370255;19;19922;-79
2023/01/14 07:38:16;;;;;;;;;;;;;;;;;;7368879;19;19929;-79
2023/01/14 07:40:41;;;;;;;;;;;;;;;;;;7368150;19;20394;-78
2023/01/14 07:43:06;;;;;;;;;;;;;;;;;;7364324;19;20330;-78
2023/01/14 07:45:31;;;;;;;;;;;;;;;;;;7373120;19;19919;-79
2023/01/14 07:47:56;;;;;;;;;;;;;;;;;;7369573;19;19910;-79
2023/01/14 07:50:22;;;;;;;;;;;;;;;;;;7364615;19;19986;-78
2023/01/14 07:52:47;;;;;;;;;;;;;;;;;;7367340;19;20285;-79
2023/01/14 07:55:12;;;;;;;;;;;;;;;;;;7366514;19;19942;-78
2023/01/14 07:57:37;;;;;;;;;;;;;;;;;;7361107;19;19997;-78
2023/01/14 08:00:02;;;;;;;;;;;;;;;;;;7367367;19;19974;-79
2023/01/14 08:02:27;;;;;;;;;;;;;;;;;;7364001;19;20297;-79
2023/01/14 08:04:52;;;;;;;;;;;;;;;;;;7368685;19;19946;-79
2023/01/14 08:07:17;;;;;;;;;;;;;;;;;;7358667;19;19922;-79
2023/01/14 08:09:42;;;;;;;;;;;;;;;;;;7367533;19;19927;-79
2023/01/14 08:12:08;;;;;;;;;;;;;;;;;;7365026;19;20254;-79
2023/01/14 08:14:33;;;;;;;;;;;;;;;;;;7371555;19;19947;-80
2023/01/14 08:17:02;;;;;;;;;;;;;;;;;;7372810;19;20289;-79
2023/01/14 08:19:27;;;;;;;;;;;;;;;;;;7370230;19;19930;-79
2023/01/14 08:21:52;;;;;;;;;;;;;;;;;;7353359;19;19918;-78
2023/01/14 08:24:17;;;;;;;;;;;;;;;;;;7365300;19;19915;-79
2023/01/14 08:26:42;;;;;;;;;;;;;;;;;;7369631;19;19922;-79
2023/01/14 08:29:07;;;;;;;;;;;;;;;;;;7371581;19;20356;-80
2023/01/14 08:31:33;;;;;;;;;;;;;;;;;;7371138;19;19919;-80
2023/01/14 08:33:58;;;;;;;;;;;;;;;;;;7376130;19;20319;-79
2023/01/14 08:36:23;;;;;;;;;;;;;;;;;;7366299;19;20309;-79
2023/01/14 08:38:51;;;;;;;;;;;;;;;;;;7355271;19;20518;-79
2023/01/14 08:41:16;;;;;;;;;;;;;;;;;;7360111;19;20186;-80
2023/01/14 08:43:41;;;;;;;;;;;;;;;;;;7369026;19;20540;-80
2023/01/14 08:46:06;;;;;;;;;;;;;;;;;;7363071;19;19958;-79
2023/01/14 08:48:31;;;;;;;;;;;;;;;;;;7366643;19;20321;-79
2023/01/14 08:50:56;;;;;;;;;;;;;;;;;;7364532;19;19931;-78
2023/01/14 08:53:22;;;;;;;;;;;;;;;;;;7359915;19;20340;-79
2023/01/14 08:55:47;;;;;;;;;;;;;;;;;;7364193;19;19946;-78
2023/01/14 08:58:13;;;;;;;;;;;;;;;;;;7359724;19;20272;-79
2023/01/14 09:00:38;;;;;;;;;;;;;;;;;;7368038;19;19926;-79
2023/01/14 09:03:03;;;;;;;;;;;;;;;;;;7365428;19;19923;-79
2023/01/14 09:05:28;;;;;;;;;;;;;;;;;;7363838;19;20042;-80
2023/01/14 09:18:49;;;;;;;;;;;;;;;;;;7365708;19;19927;-79
2023/01/14 09:21:14;;;;;;;;;;;;;;;;;;7361670;19;19926;-80
2023/01/14 09:23:39;;;;;;;;;;;;;;;;;;7369504;19;19946;-79
2023/01/14 09:26:05;;;;;;;;;;;;;;;;;;7360927;19;20329;-79
2023/01/14 09:28:30;;;;;;;;;;;;;;;;;;7362674;19;19919;-79
2023/01/14 09:30:55;;;;;;;;;;;;;;;;;;7370659;19;20309;-80
2023/01/14 09:33:20;;;;;;;;;;;;;;;;;;7362602;19;19918;-79
2023/01/14 09:35:45;;;;;;;;;;;;;;;;;;7360916;19;19982;-79
2023/01/14 09:38:10;;;;;;;;;;;;;;;;;;7363975;19;19926;-79
2023/01/14 09:40:35;;;;;;;;;;;;;;;;;;7366506;19;20220;-79
2023/01/14 09:43:01;;;;;;;;;;;;;;;;;;7358834;19;20011;-80
2023/01/14 09:45:26;;;;;;;;;;;;;;;;;;7360472;19;19926;-79
2023/01/14 09:47:51;;;;;;;;;;;;;;;;;;7367224;19;19918;-79
2023/01/14 09:50:16;;;;;;;;;;;;;;;;;;7365316;19;19919;-79
2023/01/14 09:52:43;;;;;;;;;;;;;;;;;;7349631;19;20148;-79
2023/01/14 09:55:08;;;;;;;;;;;;;;;;;;7350903;19;20015;-79
2023/01/14 09:57:33;;;;;;;;;;;;;;;;;;7360291;19;19990;-79
2023/01/14 09:59:58;;;;;;;;;;;;;;;;;;7373905;19;19991;-80
2023/01/14 10:02:24;;;;;;;;;;;;;;;;;;7372916;19;19927;-80
2023/01/14 10:04:49;;;;;;;;;;;;;;;;;;7370056;19;19915;-80
2023/01/14 10:07:14;;;;;;;;;;;;;;;;;;7373830;19;19958;-79
2023/01/14 10:09:40;;;;;;;;;;;;;;;;;;7374518;19;19919;-78
2023/01/14 10:12:05;;;;;;;;;;;;;;;;;;7369298;19;19943;-78
2023/01/14 10:14:31;;;;;;;;;;;;;;;;;;7372901;19;19966;-77
2023/01/14 10:16:56;;;;;;;;;;;;;;;;;;7376224;19;19919;-78
2023/01/14 10:19:21;;;;;;;;;;;;;;;;;;7368347;19;19926;-80
2023/01/14 10:21:46;;;;;;;;;;;;;;;;;;7372495;19;20357;-77
2023/01/14 10:24:11;;;;;;;;;;;;;;;;;;7364411;19;19963;-77
2023/01/14 10:26:36;;;;;;;;;;;;;;;;;;7367847;19;20379;-77
2023/01/14 10:29:02;;;;;;;;;;;;;;;;;;7376097;19;19943;-78
2023/01/14 10:31:27;;;;;;;;;;;;;;;;;;7370534;19;19979;-76
2023/01/14 10:33:52;;;;;;;;;;;;;;;;;;7370594;19;20031;-76
2023/01/14 10:36:17;;;;;;;;;;;;;;;;;;7366110;19;19939;-78
2023/01/14 10:38:42;;;;;;;;;;;;;;;;;;7371073;19;19973;-77
2023/01/14 10:41:08;;;;;;;;;;;;;;;;;;7368913;19;20339;-80
2023/01/14 10:43:33;;;;;;;;;;;;;;;;;;7372427;19;20312;-77
2023/01/14 10:45:58;;;;;;;;;;;;;;;;;;7370497;19;19918;-75
2023/01/14 10:48:24;;;;;;;;;;;;;;;;;;7368314;19;20439;-77
2023/01/14 10:50:49;;;;;;;;;;;;;;;;;;7367703;19;19989;-77
2023/01/14 10:53:14;;;;;;;;;;;;;;;;;;7371442;19;19911;-78
2023/01/14 10:55:39;;;;;;;;;;;;;;;;;;7371095;19;20227;-77
2023/01/14 10:58:05;;;;;;;;;;;;;;;;;;7358385;19;19958;-75
2023/01/14 11:00:31;;;;;;;;;;;;;;;;;;7368750;19;19946;-75
2023/01/14 11:02:56;;;;;;;;;;;;;;;;;;7370426;19;20216;-76
2023/01/14 11:05:21;;;;;;;;;;;;;;;;;;7362930;19;19938;-77
2023/01/14 11:07:46;;;;;;;;;;;;;;;;;;7367815;19;19930;-78
2023/01/14 11:10:11;;;;;;;;;;;;;;;;;;7366726;19;19922;-77
2023/01/14 11:12:39;;;;;;;;;;;;;;;;;;7338810;19;19926;-76
2023/01/14 11:15:04;;;;;;;;;;;;;;;;;;7370768;19;19919;-75
2023/01/14 11:17:29;;;;;;;;;;;;;;;;;;7369112;19;20381;-76
2023/01/14 11:19:54;;;;;;;;;;;;;;;;;;7370521;19;19923;-75
2023/01/14 11:22:19;;;;;;;;;;;;;;;;;;7362595;19;19926;-75
2023/01/14 11:24:44;;;;;;;;;;;;;;;;;;7367893;19;20289;-76
2023/01/14 11:27:09;;;;;;;;;;;;;;;;;;7357254;19;20129;-77
2023/01/14 11:29:35;;;;;;;;;;;;;;;;;;7365261;19;20037;-75
2023/01/14 11:32:01;;;;;;;;;;;;;;;;;;7369107;19;20010;-75
2023/01/14 11:34:26;;;;;;;;;;;;;;;;;;7366822;19;19930;-74
2023/01/14 11:36:52;;;;;;;;;;;;;;;;;;7368984;19;19959;-75
2023/01/14 11:39:17;;;;;;;;;;;;;;;;;;7360850;19;20370;-76
2023/01/14 11:41:42;;;;;;;;;;;;;;;;;;7361061;19;19915;-76
2023/01/14 11:44:07;;;;;;;;;;;;;;;;;;7368738;19;19929;-75
2023/01/14 11:46:36;;;;;;;;;;;;;;;;;;7358200;19;20368;-76
2023/01/14 11:49:02;;;;;;;;;;;;;;;;;;7367063;19;19934;-76
2023/01/14 11:51:27;;;;;;;;;;;;;;;;;;7367879;19;19954;-77
2023/01/14 11:53:52;;;;;;;;;;;;;;;;;;7370476;19;19922;-76
2023/01/14 11:56:17;;;;;;;;;;;;;;;;;;7354580;19;19946;-75
2023/01/14 11:58:43;;;;;;;;;;;;;;;;;;7358255;19;20256;-76
2023/01/14 12:01:08;;;;;;;;;;;;;;;;;;7347920;19;20282;-76
2023/01/14 12:03:34;;;;;;;;;;;;;;;;;;7357267;19;20393;-76
2023/01/14 12:05:59;;;;;;;;;;;;;;;;;;7360110;19;20393;-75
2023/01/14 12:08:24;;;;;;;;;;;;;;;;;;7362859;19;20238;-76
2023/01/14 12:10:49;;;;;;;;;;;;;;;;;;7333563;19;19932;-76
2023/01/14 12:18:43;;;;;;;;;;;;;;;;;;7362988;19;20251;-78
2023/01/14 12:21:09;;;;;;;;;;;;;;;;;;7360499;19;19931;-76
2023/01/14 12:23:34;;;;;;;;;;;;;;;;;;7348230;19;19932;-76
2023/01/14 12:25:59;;;;;;;;;;;;;;;;;;7361179;19;19930;-76
2023/01/14 12:28:25;;;;;;;;;;;;;;;;;;7360531;19;19919;-76
2023/01/14 12:30:50;;;;;;;;;;;;;;;;;;7365733;19;20365;-77
2023/01/14 12:33:15;;;;;;;;;;;;;;;;;;7364335;19;19926;-77
